createdAt,value
2022-10-31T00:00:53.164Z,19.67
2022-10-31T00:04:53.319Z,33.93
2022-10-31T00:09:01.796Z,21.70
2022-10-31T00:13:02.028Z,17.50
2022-10-31T00:17:02.337Z,19.87
2022-10-31T00:21:06.953Z,25.10
2022-10-31T00:25:10.547Z,22.70
2022-10-31T00:29:10.654Z,24.17
2022-10-31T00:33:10.936Z,27.67
2022-10-31T00:37:11.097Z,20.00
2022-10-31T00:41:14.505Z,20.73
2022-10-31T00:45:15.447Z,22.60
2022-10-31T00:49:15.703Z,29.57
2022-10-31T00:53:15.993Z,21.97
2022-10-31T00:57:19.026Z,16.13
2022-10-31T01:01:20.533Z,17.87
2022-10-31T01:05:21.513Z,17.00
2022-10-31T01:09:22.076Z,28.60
2022-10-31T01:13:24.791Z,24.57
2022-10-31T01:17:26.304Z,25.37
2022-10-31T01:21:29.900Z,21.47
2022-10-31T01:25:32.604Z,18.93
2022-10-31T01:29:35.396Z,15.77
2022-10-31T01:33:35.654Z,18.60
2022-10-31T01:37:36.017Z,17.00
2022-10-31T01:41:39.407Z,20.10
2022-10-31T01:45:45.645Z,13.80
2022-10-31T01:49:52.912Z,12.93
2022-10-31T01:53:59.128Z,32.90
2022-10-31T01:58:05.903Z,11.13
2022-10-31T02:02:10.495Z,10.63
2022-10-31T02:06:17.645Z,7.53
2022-10-31T02:10:18.735Z,14.70
2022-10-31T02:14:19.572Z,25.67
2022-10-31T02:18:23.544Z,18.60
2022-10-31T02:22:31.729Z,6.03
2022-10-31T02:27:19.135Z,9.33
2022-10-31T02:31:37.434Z,6.70
2022-10-31T02:35:54.187Z,9.27
2022-10-31T02:40:08.696Z,13.50
2022-10-31T02:44:42.237Z,25.73
2022-10-31T02:48:49.165Z,23.73
2022-10-31T02:52:54.447Z,16.03
2022-10-31T02:57:00.141Z,10.73
2022-10-31T03:01:51.369Z,6.60
2022-10-31T03:06:06.633Z,9.53
2022-10-31T03:10:18.989Z,7.07
2022-10-31T03:14:28.515Z,9.33
2022-10-31T03:18:38.071Z,10.03
2022-10-31T03:22:46.568Z,19.67
2022-10-31T03:26:55.350Z,33.83
2022-10-31T03:31:00.407Z,22.63
2022-10-31T03:35:06.549Z,36.57
2022-10-31T03:39:16.973Z,40.70
2022-10-31T03:43:25.703Z,18.67
2022-10-31T03:47:26.586Z,12.53
2022-10-31T03:51:36.357Z,12.80
2022-10-31T03:55:49.894Z,33.37
2022-10-31T03:59:58.894Z,21.53
2022-10-31T04:04:00.699Z,11.53
2022-10-31T04:08:07.132Z,10.27
2022-10-31T04:12:16.082Z,18.37
2022-10-31T04:16:20.811Z,15.87
2022-10-31T04:20:22.214Z,17.67
2022-10-31T04:24:22.667Z,15.17
2022-10-31T04:28:25.933Z,10.23
2022-10-31T04:32:26.211Z,53.63
2022-10-31T04:36:28.297Z,11.93
2022-10-31T04:40:28.574Z,20.70
2022-10-31T04:44:31.242Z,14.27
2022-10-31T04:48:34.645Z,10.70
2022-10-31T04:52:36.805Z,10.60
2022-10-31T04:56:37.238Z,11.67
2022-10-31T05:00:47.039Z,12.23
2022-10-31T05:04:48.271Z,15.23
2022-10-31T05:08:49.492Z,12.10
2022-10-31T05:12:51.580Z,10.43
2022-10-31T05:17:12.810Z,45.97
2022-10-31T05:21:38.887Z,23.57
2022-10-31T05:25:39.197Z,28.63
2022-10-31T05:29:39.362Z,32.70
2022-10-31T05:33:42.034Z,92.57
2022-10-31T05:38:01.918Z,41.33
2022-10-31T05:42:02.078Z,25.87
2022-10-31T05:46:03.889Z,10.87
2022-10-31T05:50:25.751Z,32.33
2022-10-31T05:54:41.700Z,24.20
2022-10-31T05:58:42.816Z,11.70
2022-10-31T06:02:43.023Z,14.10
2022-10-31T06:07:01.083Z,17.57
2022-10-31T06:11:01.210Z,34.87
2022-10-31T06:15:25.014Z,24.53
2022-10-31T06:19:26.855Z,19.90
2022-10-31T06:23:29.723Z,10.20
2022-10-31T06:27:49.779Z,35.53
2022-10-31T06:31:50.080Z,31.53
2022-10-31T06:35:51.444Z,35.40
2022-10-31T06:39:54.773Z,55.23
2022-10-31T06:43:55.120Z,15.27
2022-10-31T06:48:21.637Z,35.17
2022-10-31T06:52:42.280Z,37.10
2022-10-31T06:56:45.353Z,13.53
2022-10-31T07:00:45.690Z,12.63
2022-10-31T07:04:46.668Z,15.00
2022-10-31T07:08:48.861Z,20.83
2022-10-31T07:12:51.850Z,12.40
2022-10-31T07:16:55.601Z,12.53
2022-10-31T07:21:00.591Z,15.40
2022-10-31T07:25:00.727Z,25.13
2022-10-31T07:29:12.406Z,16.37
2022-10-31T07:33:13.035Z,13.23
2022-10-31T07:37:33.080Z,44.93
2022-10-31T07:41:33.423Z,20.93
2022-10-31T07:45:36.349Z,33.33
2022-10-31T07:49:54.736Z,42.63
2022-10-31T07:54:15.063Z,28.47
2022-10-31T07:58:18.715Z,14.93
2022-10-31T08:02:22.030Z,15.17
2022-10-31T08:06:22.126Z,13.00
2022-10-31T08:10:44.626Z,13.17
2022-10-31T08:14:45.265Z,15.03
2022-10-31T08:18:48.790Z,15.70
2022-10-31T08:22:58.330Z,19.50
2022-10-31T08:26:59.610Z,21.40
2022-10-31T08:31:02.241Z,19.13
2022-10-31T08:35:17.762Z,26.07
2022-10-31T08:39:40.615Z,18.13
2022-10-31T08:43:40.877Z,11.63
2022-10-31T08:47:41.046Z,18.35
2022-10-31T08:51:46.875Z,15.63
2022-10-31T08:55:49.497Z,20.27
2022-10-31T08:59:57.573Z,16.05
2022-10-31T09:04:18.163Z,15.05
2022-10-31T09:08:21.660Z,11.38
2022-10-31T09:12:21.845Z,16.48
2022-10-31T09:16:40.642Z,14.85
2022-10-31T09:20:49.919Z,12.43
2022-10-31T09:24:53.465Z,10.10
2022-10-31T09:28:53.524Z,16.55
2022-10-31T09:32:59.485Z,13.50
2022-10-31T09:36:59.875Z,10.48
2022-10-31T09:41:22.977Z,13.40
2022-10-31T09:45:35.006Z,10.32
2022-10-31T09:50:06.259Z,8.77
2022-10-31T09:54:14.717Z,9.82
2022-10-31T09:58:22.731Z,9.50
2022-10-31T10:02:31.738Z,11.70
2022-10-31T10:06:39.560Z,14.90
2022-10-31T10:11:15.425Z,8.75
2022-10-31T10:15:59.398Z,10.68
2022-10-31T10:20:29.003Z,11.07
2022-10-31T10:24:55.170Z,12.45
2022-10-31T10:29:05.154Z,10.75
2022-10-31T10:33:14.939Z,16.65
2022-10-31T10:37:28.748Z,11.88
2022-10-31T10:41:35.218Z,15.13
2022-10-31T10:45:47.960Z,14.73
2022-10-31T10:49:55.703Z,14.55
2022-10-31T10:54:30.942Z,19.60
2022-10-31T10:58:31.141Z,17.60
2022-10-31T11:02:36.727Z,14.48
2022-10-31T11:06:39.479Z,14.52
2022-10-31T11:10:40.787Z,11.23
2022-10-31T11:14:50.890Z,12.85
2022-10-31T11:18:51.836Z,18.17
2022-10-31T11:23:08.493Z,12.20
2022-10-31T11:27:20.926Z,11.38
2022-10-31T11:31:21.277Z,12.15
2022-10-31T11:35:25.991Z,12.02
2022-10-31T11:39:29.084Z,13.95
2022-10-31T11:43:30.086Z,15.88
2022-10-31T11:47:33.700Z,12.60
2022-10-31T11:51:38.501Z,7.50
2022-10-31T11:55:43.451Z,14.48
2022-10-31T11:59:43.684Z,13.20
2022-10-31T12:03:58.825Z,13.85
2022-10-31T12:08:03.440Z,13.77
2022-10-31T12:12:36.839Z,10.57
2022-10-31T12:16:46.428Z,15.13
2022-10-31T12:21:04.596Z,17.52
2022-10-31T12:25:29.378Z,15.73
2022-10-31T12:29:53.564Z,14.30
2022-10-31T12:34:13.954Z,11.88
2022-10-31T12:38:53.790Z,11.73
2022-10-31T12:43:10.828Z,13.98
2022-10-31T12:47:40.177Z,10.82
2022-10-31T12:51:54.818Z,15.60
2022-10-31T12:56:18.757Z,9.70
2022-10-31T13:00:24.239Z,10.23
2022-10-31T13:04:46.109Z,14.20
2022-10-31T13:08:54.957Z,13.80
2022-10-31T13:13:03.015Z,15.73
2022-10-31T13:17:06.194Z,16.30
2022-10-31T13:21:16.573Z,14.57
2022-10-31T13:25:23.163Z,10.68
2022-10-31T13:29:32.853Z,10.68
2022-10-31T13:33:39.430Z,21.35
2022-10-31T13:37:54.528Z,22.73
2022-10-31T13:42:03.581Z,13.32
2022-10-31T13:46:03.871Z,11.70
2022-10-31T13:50:23.905Z,13.40
2022-10-31T13:54:36.882Z,8.38
2022-10-31T13:58:38.193Z,9.80
2022-10-31T14:02:40.533Z,10.70
2022-10-31T14:06:53.686Z,11.70
2022-10-31T14:10:59.646Z,12.73
2022-10-31T14:15:08.395Z,11.18
2022-10-31T14:19:17.662Z,12.55
2022-10-31T14:23:41.725Z,10.20
2022-10-31T14:27:53.008Z,13.52
2022-10-31T14:32:00.203Z,14.20
2022-10-31T14:36:07.783Z,9.98
2022-10-31T14:40:26.533Z,10.77
2022-10-31T14:45:12.253Z,10.95
2022-10-31T14:49:35.400Z,12.57
2022-10-31T14:53:39.366Z,8.00
2022-10-31T14:57:46.028Z,6.57
2022-10-31T15:02:01.631Z,9.73
2022-10-31T15:06:07.044Z,9.65
2022-10-31T15:10:22.408Z,7.50
2022-10-31T15:14:29.607Z,7.03
2022-10-31T15:18:32.872Z,8.02
2022-10-31T15:22:35.380Z,8.07
2022-10-31T15:26:43.233Z,10.07
2022-10-31T15:30:43.472Z,11.35
2022-10-31T15:34:47.763Z,9.85
2022-10-31T15:38:48.479Z,19.98
2022-10-31T15:42:55.410Z,16.70
2022-10-31T15:47:01.931Z,12.10
2022-10-31T15:51:06.034Z,10.57
2022-10-31T15:55:21.812Z,10.77
2022-10-31T15:59:28.135Z,11.73
2022-10-31T16:03:31.246Z,15.98
2022-10-31T16:07:34.617Z,13.10
2022-10-31T16:11:42.183Z,14.25
2022-10-31T16:15:59.554Z,9.75
2022-10-31T16:20:26.930Z,11.52
2022-10-31T16:24:35.507Z,17.73
2022-10-31T16:28:43.195Z,40.83
2022-10-31T16:32:59.385Z,28.75
2022-10-31T16:37:00.036Z,29.00
2022-10-31T16:41:05.112Z,26.55
2022-10-31T16:45:05.386Z,31.27
2022-10-31T16:49:05.600Z,25.42
2022-10-31T16:53:13.970Z,25.13
2022-10-31T16:57:21.275Z,25.90
2022-10-31T17:01:21.615Z,36.00
2022-10-31T17:05:30.314Z,27.30
2022-10-31T17:09:30.538Z,32.60
2022-10-31T17:13:37.275Z,32.10
2022-10-31T17:17:37.624Z,31.05
2022-10-31T17:21:38.906Z,86.70
2022-10-31T17:25:39.527Z,40.78
2022-10-31T17:29:42.231Z,30.30
2022-10-31T17:33:43.440Z,35.97
2022-10-31T17:37:45.233Z,52.65
2022-10-31T17:41:45.371Z,42.15
2022-10-31T17:45:48.037Z,30.10
2022-10-31T17:49:48.253Z,30.35
2022-10-31T17:53:48.497Z,29.33
2022-10-31T17:57:49.202Z,25.30
2022-10-31T18:01:52.070Z,31.70
2022-10-31T18:05:57.551Z,31.33
2022-10-31T18:09:57.756Z,26.50
2022-10-31T18:13:59.917Z,31.47
2022-10-31T18:18:02.912Z,30.63
2022-10-31T18:22:03.820Z,30.60
2022-10-31T18:26:03.985Z,28.70
2022-10-31T18:30:04.093Z,34.67
2022-10-31T18:34:06.824Z,34.77
2022-10-31T18:38:08.025Z,33.93
2022-10-31T18:42:08.542Z,47.53
2022-10-31T18:46:11.796Z,43.27
2022-10-31T18:50:15.138Z,43.50
2022-10-31T18:54:15.221Z,35.50
2022-10-31T18:58:15.364Z,38.97
2022-10-31T19:02:18.353Z,41.93
2022-10-31T19:06:21.177Z,36.60
2022-10-31T19:10:21.437Z,37.70
2022-10-31T19:14:21.817Z,52.53
2022-10-31T19:18:21.929Z,70.00
2022-10-31T19:22:24.606Z,56.17
2022-10-31T19:26:24.908Z,59.33
2022-10-31T19:30:25.168Z,63.90
2022-10-31T19:34:25.284Z,53.47
2022-10-31T19:38:28.012Z,71.00
2022-10-31T19:42:29.039Z,53.87
2022-10-31T19:50:49.664Z,52.33
2022-10-31T19:54:52.307Z,37.77
2022-10-31T19:58:52.632Z,47.83
2022-10-31T20:02:52.790Z,54.00
2022-10-31T20:06:52.885Z,46.50
2022-10-31T20:11:03.903Z,57.43
2022-10-31T20:15:04.104Z,51.27
2022-10-31T20:19:04.316Z,54.70
2022-10-31T20:23:04.726Z,51.00
2022-10-31T20:27:07.544Z,59.77
2022-10-31T20:31:12.642Z,52.67
2022-10-31T20:35:13.560Z,49.20
2022-10-31T20:39:13.747Z,53.63
2022-10-31T20:43:16.980Z,47.10
2022-10-31T20:47:19.493Z,43.30
2022-10-31T20:51:25.096Z,44.40
2022-10-31T20:55:25.277Z,41.57
2022-10-31T20:59:27.950Z,42.47
2022-10-31T21:03:29.630Z,43.17
2022-10-31T21:07:32.762Z,34.10
2022-10-31T21:11:33.523Z,32.53
2022-10-31T21:15:36.336Z,30.50
2022-10-31T21:19:37.624Z,40.33
2022-10-31T21:23:37.783Z,60.63
2022-10-31T21:27:37.874Z,49.97
2022-10-31T21:31:42.674Z,58.77
2022-10-31T21:35:42.846Z,47.13
2022-10-31T21:39:46.888Z,43.63
2022-10-31T21:43:54.943Z,45.93
2022-10-31T21:47:57.633Z,29.07
2022-10-31T21:51:57.784Z,29.07
2022-10-31T21:55:57.961Z,30.13
2022-10-31T21:59:58.052Z,27.87
2022-10-31T22:04:01.839Z,24.90
2022-10-31T22:08:02.248Z,22.13
2022-10-31T22:12:06.656Z,43.47
2022-10-31T22:16:10.026Z,43.73
2022-10-31T22:20:14.146Z,41.17
2022-10-31T22:24:15.270Z,57.47
2022-10-31T22:28:15.369Z,49.57
2022-10-31T22:32:15.530Z,55.87
2022-10-31T22:36:21.156Z,57.87
2022-10-31T22:40:21.291Z,49.80
2022-10-31T22:44:21.457Z,44.30
2022-10-31T22:48:21.569Z,44.50
2022-10-31T22:52:24.292Z,38.50
2022-10-31T22:56:26.863Z,49.77
2022-10-31T23:00:27.282Z,44.93
2022-10-31T23:04:27.403Z,43.57
2022-10-31T23:08:31.756Z,76.90
2022-10-31T23:12:45.419Z,57.43
2022-10-31T23:16:48.858Z,40.80
2022-10-31T23:20:54.353Z,60.50
2022-10-31T23:24:57.027Z,56.10
2022-10-31T23:28:54.619Z,61.97
2022-10-31T23:32:54.778Z,44.63
2022-10-31T23:36:55.263Z,46.13
2022-10-31T23:40:58.252Z,41.60
2022-10-31T23:44:58.827Z,47.03
2022-10-31T23:48:58.972Z,40.87
2022-10-31T23:52:59.049Z,25.50
2022-10-31T23:57:02.262Z,37.00
